Time;durP1;ratioP1;P1;durP2;ratioP2;P2;SDS_P1;SDS_P2;PMS_P1;PMS_P2;Temp;Humidity;BMP_temperature;BMP_pressure;BME280_temperature;BME280_humidity;BME280_pressure;Samples;Min_cycle;Max_cycle;Signal;HPM_P1;HPM_P2
2024/02/14 00:00:20;;;;;;;0.70;0.70;;;;;;;8.67;83.27;96457.53;4947916;28;20057;-61
2024/02/14 00:02:50;;;;;;;0.70;0.70;;;;;;;8.72;81.90;96462.75;4948452;29;20086;-62
2024/02/14 00:05:17;;;;;;;0.60;0.60;;;;;;;8.45;81.69;96414.22;4946886;29;20498;-61
2024/02/14 00:07:44;;;;;;;0.70;0.70;;;;;;;8.28;80.99;96398.22;4948588;28;20055;-70
2024/02/14 00:10:11;;;;;;;0.70;0.70;;;;;;;8.69;80.17;96441.41;4948504;29;20054;-61
2024/02/14 00:12:38;;;;;;;0.70;0.70;;;;;;;8.86;80.09;96465.72;4948070;28;20051;-72
2024/02/14 00:15:07;;;;;;;0.80;0.80;;;;;;;8.91;80.04;96465.38;4948057;28;20234;-71
2024/02/14 00:17:35;;;;;;;0.70;0.70;;;;;;;8.84;80.28;96466.06;4946554;28;20063;-71
2024/02/14 00:20:03;;;;;;;0.80;0.80;;;;;;;8.75;80.14;96473.84;4946553;29;20074;-63
2024/02/14 00:22:32;;;;;;;0.70;0.70;;;;;;;8.85;80.06;96466.88;4948292;28;20143;-63
2024/02/14 00:24:59;;;;;;;0.68;0.68;;;;;;;8.61;80.77;96472.84;4947663;28;20146;-61
2024/02/14 00:27:27;;;;;;;0.70;0.70;;;;;;;8.72;81.30;96471.03;4947676;28;20055;-61
2024/02/14 00:29:54;;;;;;;0.70;0.70;;;;;;;8.74;80.77;96471.47;4947756;28;20110;-70
2024/02/14 00:32:21;;;;;;;0.70;0.70;;;;;;;8.26;80.41;96411.56;4947805;28;20506;-70
2024/02/14 00:34:49;;;;;;;0.65;0.65;;;;;;;8.61;80.72;96450.75;4947391;28;20566;-71
2024/02/14 00:37:17;;;;;;;0.70;0.70;;;;;;;8.55;80.65;96463.28;4947749;28;20501;-61
2024/02/14 00:39:43;;;;;;;0.70;0.70;;;;;;;8.59;81.37;96464.13;4946120;29;20051;-62
2024/02/14 00:42:10;;;;;;;0.70;0.70;;;;;;;8.71;80.20;96470.22;4947912;28;20071;-61
2024/02/14 00:44:37;;;;;;;0.70;0.70;;;;;;;8.79;79.28;96468.34;4947497;28;20047;-71
2024/02/14 00:47:04;;;;;;;0.70;0.70;;;;;;;8.60;80.03;96472.03;4947755;28;20055;-71
2024/02/14 00:49:34;;;;;;;0.60;0.60;;;;;;;8.81;79.24;96483.41;4946025;29;20062;-70
2024/02/14 00:52:02;;;;;;;0.60;0.60;;;;;;;8.24;79.67;96391.81;4947066;28;20062;-62
2024/02/14 00:54:28;;;;;;;0.80;0.80;;;;;;;8.79;80.60;96482.16;4978022;28;20062;-70
2024/02/14 00:56:55;;;;;;;0.80;0.80;;;;;;;8.83;79.64;96475.53;4947382;28;20067;-70
2024/02/14 00:59:22;;;;;;;0.68;0.68;;;;;;;8.76;80.84;96488.44;4947079;28;20055;-71
2024/02/14 01:01:49;;;;;;;0.70;0.70;;;;;;;8.78;80.39;96491.63;4945937;29;20059;-61
2024/02/14 01:04:17;;;;;;;0.70;0.70;;;;;;;8.80;80.68;96492.84;4947545;28;20069;-63
2024/02/14 01:06:44;;;;;;;0.70;0.70;;;;;;;8.83;80.82;96491.31;4947149;28;20062;-71
2024/02/14 01:09:11;;;;;;;0.70;0.70;;;;;;;8.83;80.70;96483.81;4947003;28;20070;-70
2024/02/14 01:11:38;;;;;;;0.70;0.70;;;;;;;8.91;80.48;96493.00;4947240;28;20113;-70
2024/02/14 01:14:05;;;;;;;0.70;0.70;;;;;;;8.95;80.12;96499.38;4946774;28;20102;-61
2024/02/14 01:16:32;;;;;;;0.73;0.73;;;;;;;8.88;80.14;96499.28;4946825;29;20063;-61
2024/02/14 01:18:59;;;;;;;0.70;0.70;;;;;;;8.90;79.87;96494.16;4945225;29;20519;-70
2024/02/14 01:21:26;;;;;;;0.70;0.70;;;;;;;8.87;79.69;96492.13;4946592;28;20055;-60
2024/02/14 01:23:53;;;;;;;0.70;0.70;;;;;;;8.43;80.33;96438.63;4947343;28;20051;-70
2024/02/14 01:26:20;;;;;;;0.80;0.80;;;;;;;8.72;81.07;96491.16;4945257;29;20113;-70
2024/02/14 01:28:48;;;;;;;0.70;0.70;;;;;;;8.81;81.54;96499.16;4947325;28;20050;-60
2024/02/14 01:31:15;;;;;;;0.80;0.80;;;;;;;8.79;80.24;96496.78;4946956;29;20070;-62
2024/02/14 01:33:43;;;;;;;0.70;0.70;;;;;;;8.35;81.01;96445.22;4946585;28;20055;-61
2024/02/14 01:36:10;;;;;;;0.70;0.70;;;;;;;8.52;82.56;96502.66;4946570;28;20055;-71
2024/02/14 01:38:37;;;;;;;0.70;0.70;;;;;;;8.57;82.94;96489.34;4947062;28;20055;-61
2024/02/14 01:41:05;;;;;;;0.60;0.60;;;;;;;8.15;83.78;96457.47;4946687;28;20066;-60
2024/02/14 01:43:32;;;;;;;0.70;0.70;;;;;;;8.50;84.92;96502.22;4946910;28;20479;-60
2024/02/14 01:46:06;;;;;;;0.63;0.63;;;;;;;8.40;85.24;96505.59;4946379;28;20047;-61
2024/02/14 01:48:39;;;;;;;0.60;0.60;;;;;;;7.84;85.23;96411.63;4946662;28;20059;-61
2024/02/14 01:51:08;;;;;;;0.70;0.70;;;;;;;8.44;86.03;96503.72;4946568;29;20051;-70
2024/02/14 01:53:39;;;;;;;0.70;0.70;;;;;;;8.43;86.77;96504.88;4945867;28;20082;-71
2024/02/14 01:56:07;;;;;;;0.70;0.70;;;;;;;8.09;86.29;96453.44;4946175;28;20051;-62
2024/02/14 01:58:34;;;;;;;0.70;0.70;;;;;;;8.40;86.92;96516.66;4946416;28;20135;-71
2024/02/14 02:01:02;;;;;;;0.70;0.70;;;;;;;7.73;86.51;96389.41;4946574;28;20153;-72
2024/02/14 02:03:35;;;;;;;0.70;0.70;;;;;;;8.19;87.04;96472.13;4946467;28;20531;-73
2024/02/14 02:06:03;;;;;;;0.65;0.65;;;;;;;8.45;88.13;96508.06;4945913;28;20059;-62
2024/02/14 02:08:30;;;;;;;0.70;0.70;;;;;;;8.09;88.23;96445.16;4946227;28;20510;-72
2024/02/14 02:10:57;;;;;;;0.70;0.70;;;;;;;8.53;87.83;96495.97;4944582;29;20447;-62
2024/02/14 02:13:25;;;;;;;0.70;0.70;;;;;;;8.47;87.83;96508.50;4946348;28;20216;-60
2024/02/14 02:15:53;;;;;;;0.70;0.70;;;;;;;8.54;87.08;96505.84;4946078;28;20053;-70
2024/02/14 02:18:20;;;;;;;0.70;0.70;;;;;;;8.09;85.99;96423.09;4945605;28;20166;-71
2024/02/14 02:20:47;;;;;;;0.70;0.70;;;;;;;8.18;88.28;96509.94;4945956;29;20183;-59
2024/02/14 02:23:17;;;;;;;0.70;0.70;;;;;;;7.65;90.75;96459.34;4944938;29;20078;-59
2024/02/14 02:25:44;;;;;;;0.65;0.65;;;;;;;8.30;90.15;96526.34;4944620;29;20051;-70
2024/02/14 02:28:11;;;;;;;0.63;0.63;;;;;;;8.31;89.65;96524.38;4946077;28;20054;-68
2024/02/14 02:30:38;;;;;;;0.70;0.70;;;;;;;8.44;88.14;96525.78;4945545;28;20047;-73
2024/02/14 02:33:05;;;;;;;0.65;0.65;;;;;;;8.30;89.44;96528.31;4976632;28;20491;-71
2024/02/14 02:35:34;;;;;;;0.70;0.70;;;;;;;8.26;90.32;96521.94;4945684;28;20102;-71
2024/02/14 02:38:01;;;;;;;0.70;0.70;;;;;;;8.27;91.00;96526.25;4946147;28;20094;-71
2024/02/14 02:40:28;;;;;;;0.70;0.70;;;;;;;8.36;90.49;96526.84;4945804;28;20066;-71
2024/02/14 02:42:54;;;;;;;0.70;0.70;;;;;;;8.44;90.55;96534.06;4930514;29;20087;-73
2024/02/14 02:45:21;;;;;;;0.70;0.70;;;;;;;8.46;89.48;96542.75;4926489;29;20060;-60
2024/02/14 02:47:51;;;;;;;0.77;0.77;;;;;;;8.37;89.61;96542.22;4926415;29;20510;-71
2024/02/14 02:50:19;;;;;;;0.77;0.77;;;;;;;7.83;89.79;96489.19;4925061;29;20059;-61
2024/02/14 02:52:47;;;;;;;0.70;0.70;;;;;;;8.30;90.81;96539.34;4926761;28;20105;-68
2024/02/14 02:55:17;;;;;;;0.63;0.63;;;;;;;8.26;90.61;96544.00;4926545;29;20134;-61
2024/02/14 02:57:45;;;;;;;0.70;0.70;;;;;;;8.30;90.62;96544.88;4926805;29;20491;-60
2024/02/14 03:00:13;;;;;;;0.75;0.75;;;;;;;8.45;89.25;96557.72;4928043;29;20111;-71
2024/02/14 03:02:44;;;;;;;0.70;0.70;;;;;;;8.41;89.76;96559.66;4945615;28;20051;-71
2024/02/14 03:05:17;;;;;;;0.70;0.70;;;;;;;8.54;88.92;96561.03;4943979;29;20066;-61
2024/02/14 03:07:47;;;;;;;0.70;0.70;;;;;;;8.59;89.43;96557.97;4945669;28;20430;-61
2024/02/14 03:10:17;;;;;;;0.70;0.70;;;;;;;8.54;88.65;96566.56;4945379;28;20510;-61
2024/02/14 03:12:48;;;;;;;0.70;0.70;;;;;;;8.44;89.12;96562.44;4945882;28;20477;-70
2024/02/14 03:15:16;;;;;;;0.70;0.70;;;;;;;8.47;89.43;96561.72;4945437;29;20514;-71
2024/02/14 03:17:43;;;;;;;0.60;0.60;;;;;;;8.50;89.54;96565.72;4946403;28;20138;-62
2024/02/14 03:20:12;;;;;;;0.70;0.70;;;;;;;8.46;88.46;96545.53;4949072;28;20062;-62
2024/02/14 03:22:47;;;;;;;0.70;0.70;;;;;;;8.09;88.48;96497.56;4949078;29;20142;-62
2024/02/14 03:25:19;;;;;;;0.70;0.70;;;;;;;8.49;89.15;96573.19;4947759;28;20063;-71
2024/02/14 03:27:49;;;;;;;0.70;0.70;;;;;;;8.49;88.86;96575.13;4947457;29;20070;-71
2024/02/14 03:30:16;;;;;;;0.70;0.70;;;;;;;8.45;89.52;96574.28;4949230;28;20051;-72
2024/02/14 03:32:45;;;;;;;0.68;0.68;;;;;;;8.57;88.87;96577.66;4947733;29;20063;-61
2024/02/14 03:35:16;;;;;;;0.70;0.70;;;;;;;8.64;88.03;96577.00;4948970;28;20055;-62
2024/02/14 03:37:47;;;;;;;0.70;0.70;;;;;;;8.04;88.08;96525.44;4948944;29;20174;-72
2024/02/14 03:40:14;;;;;;;0.70;0.70;;;;;;;7.89;87.72;96499.56;4948737;28;20153;-62
2024/02/14 03:42:41;;;;;;;0.70;0.70;;;;;;;8.51;88.00;96594.91;4963308;28;20073;-72
2024/02/14 03:45:09;;;;;;;0.70;0.70;;;;;;;8.60;87.00;96587.19;4948853;28;20446;-61
2024/02/14 03:47:45;;;;;;;0.70;0.70;;;;;;;8.46;87.90;96597.97;4948772;29;20705;-62
2024/02/14 03:50:12;;;;;;;0.60;0.60;;;;;;;8.26;89.49;96571.59;4948444;29;20102;-60
2024/02/14 03:52:39;;;;;;;0.70;0.70;;;;;;;8.45;89.45;96607.41;4963330;28;20149;-69
2024/02/14 03:55:06;;;;;;;0.70;0.70;;;;;;;8.55;88.09;96602.06;4947209;29;20057;-70
2024/02/14 03:57:35;;;;;;;0.70;0.70;;;;;;;8.45;87.50;96607.41;4948509;28;20494;-71
2024/02/14 04:00:02;;;;;;;0.70;0.70;;;;;;;8.51;87.54;96606.75;4948245;29;20055;-71
2024/02/14 04:02:31;;;;;;;0.70;0.70;;;;;;;8.57;87.07;96605.28;4948716;29;20437;-70
2024/02/14 04:04:58;;;;;;;0.70;0.70;;;;;;;8.24;86.65;96590.47;4946665;29;20082;-60
2024/02/14 04:07:26;;;;;;;0.60;0.60;;;;;;;8.23;86.84;96594.38;4948406;28;20066;-71
2024/02/14 04:09:52;;;;;;;0.70;0.70;;;;;;;8.45;85.45;96618.44;4948312;29;20062;-70
2024/02/14 04:12:19;;;;;;;0.70;0.70;;;;;;;8.51;85.82;96616.97;4947692;29;20055;-70
2024/02/14 04:14:46;;;;;;;0.70;0.70;;;;;;;8.43;85.94;96616.06;4946779;29;20528;-60
2024/02/14 04:17:13;;;;;;;0.70;0.70;;;;;;;8.11;86.17;96580.75;4959870;28;20054;-71
2024/02/14 04:19:40;;;;;;;0.70;0.70;;;;;;;8.31;86.41;96619.00;4956528;28;20252;-71
2024/02/14 04:22:08;;;;;;;0.68;0.68;;;;;;;8.33;86.68;96615.88;4948070;28;20743;-60
2024/02/14 04:24:35;;;;;;;0.65;0.65;;;;;;;8.31;85.89;96624.53;4947840;29;20075;-61
2024/02/14 04:27:03;;;;;;;0.70;0.70;;;;;;;8.36;84.93;96631.69;4947732;29;20553;-60
2024/02/14 04:29:33;;;;;;;0.70;0.70;;;;;;;8.39;85.71;96636.47;4947451;28;20044;-69
2024/02/14 04:32:02;;;;;;;0.70;0.70;;;;;;;8.29;84.83;96637.88;4948131;28;20047;-72
2024/02/14 04:34:29;;;;;;;0.70;0.70;;;;;;;8.41;85.10;96636.91;4962577;28;20055;-60
2024/02/14 04:36:57;;;;;;;0.60;0.60;;;;;;;8.42;85.83;96652.31;4946789;29;20109;-61
2024/02/14 04:39:24;;;;;;;0.65;0.65;;;;;;;8.03;85.21;96570.75;4947461;28;20075;-63
2024/02/14 04:41:52;;;;;;;0.70;0.70;;;;;;;8.59;85.48;96635.25;4947705;28;20509;-62
2024/02/14 04:44:31;;;;;;;0.70;0.70;;;;;;;8.55;84.88;96650.97;4946382;28;20044;-72
2024/02/14 04:46:58;;;;;;;0.70;0.70;;;;;;;8.60;84.94;96648.69;4947574;28;20141;-72
2024/02/14 04:49:26;;;;;;;0.70;0.70;;;;;;;8.59;85.59;96657.34;4946994;28;20051;-70
2024/02/14 04:51:54;;;;;;;0.73;0.73;;;;;;;8.72;84.60;96651.31;4947148;28;20561;-72
2024/02/14 04:54:21;;;;;;;0.70;0.70;;;;;;;8.66;84.57;96665.78;4947435;28;20074;-72
2024/02/14 04:56:48;;;;;;;0.70;0.70;;;;;;;8.47;85.03;96666.59;4947202;28;20055;-61
2024/02/14 04:59:20;;;;;;;0.70;0.70;;;;;;;8.53;84.87;96658.81;4947040;29;20102;-72
2024/02/14 05:01:47;;;;;;;0.60;0.60;;;;;;;8.59;85.14;96663.69;4947055;28;20046;-71
2024/02/14 05:04:16;;;;;;;0.73;0.73;;;;;;;8.60;84.32;96668.03;4947282;28;20061;-70
2024/02/14 05:06:43;;;;;;;0.70;0.70;;;;;;;8.31;84.09;96629.22;4947424;28;20047;-72
2024/02/14 05:09:10;;;;;;;0.60;0.60;;;;;;;8.63;84.53;96681.09;4947350;28;20482;-61
2024/02/14 05:11:37;;;;;;;0.65;0.65;;;;;;;8.57;84.25;96670.72;4947141;28;20061;-72
2024/02/14 05:14:04;;;;;;;0.70;0.70;;;;;;;8.60;82.76;96689.34;4946063;28;20122;-61
2024/02/14 05:16:31;;;;;;;0.70;0.70;;;;;;;8.65;82.95;96677.97;4947590;28;20051;-71
2024/02/14 05:18:58;;;;;;;0.70;0.70;;;;;;;8.81;82.18;96686.94;4945523;29;20467;-72
2024/02/14 05:21:25;;;;;;;0.70;0.70;;;;;;;8.71;82.26;96693.09;4945603;29;20047;-72
2024/02/14 05:23:51;;;;;;;0.80;0.80;;;;;;;8.68;83.20;96685.50;4947037;29;20047;-71
2024/02/14 05:26:18;;;;;;;0.80;0.80;;;;;;;8.70;84.05;96691.47;4946796;28;20051;-62
2024/02/14 05:28:46;;;;;;;0.68;0.68;;;;;;;8.67;84.39;96697.72;4947059;28;20550;-70
2024/02/14 05:31:13;;;;;;;0.70;0.70;;;;;;;8.78;84.22;96693.19;4946856;28;20125;-70
2024/02/14 05:33:40;;;;;;;0.70;0.70;;;;;;;8.80;84.01;96712.97;4946253;29;20713;-60
2024/02/14 05:36:07;;;;;;;0.70;0.70;;;;;;;8.71;84.11;96704.13;4961434;28;20055;-69
2024/02/14 05:38:34;;;;;;;0.73;0.73;;;;;;;8.89;83.49;96801.91;4946885;29;20059;-60
2024/02/14 05:41:01;;;;;;;0.70;0.70;;;;;;;8.90;82.15;96701.28;4946042;28;20055;-70
2024/02/14 05:43:28;;;;;;;0.80;0.80;;;;;;;8.92;81.41;96712.78;4960729;28;20062;-60
2024/02/14 05:45:55;;;;;;;0.70;0.70;;;;;;;8.85;81.37;96715.44;4946321;28;20070;-62
2024/02/14 05:48:22;;;;;;;0.70;0.70;;;;;;;8.34;80.66;96639.53;4946512;28;20062;-67
2024/02/14 05:50:49;;;;;;;0.70;0.70;;;;;;;8.83;80.55;96717.75;4945422;28;20446;-64
2024/02/14 05:53:16;;;;;;;0.70;0.70;;;;;;;8.40;79.88;96638.06;4944471;28;20086;-61
2024/02/14 05:55:43;;;;;;;0.70;0.70;;;;;;;9.01;77.19;96727.94;4945534;28;20097;-61
2024/02/14 05:58:10;;;;;;;0.70;0.70;;;;;;;9.11;76.81;96737.59;4963372;28;20065;-62
2024/02/14 06:00:38;;;;;;;0.70;0.70;;;;;;;9.13;74.99;96735.25;4945620;28;20051;-62
2024/02/14 06:03:06;;;;;;;0.70;0.70;;;;;;;9.07;74.39;96733.97;4955925;28;20054;-62
2024/02/14 06:05:34;;;;;;;0.70;0.70;;;;;;;9.10;72.97;96760.88;4959683;28;20079;-64
2024/02/14 06:08:02;;;;;;;0.80;0.80;;;;;;;8.82;73.49;96674.75;4933021;29;20078;-61
2024/02/14 06:10:30;;;;;;;0.70;0.70;;;;;;;8.99;72.89;96704.63;4944977;28;20110;-61
2024/02/14 06:12:56;;;;;;;0.70;0.70;;;;;;;9.36;70.79;96758.16;4945726;28;20051;-63
2024/02/14 06:15:23;;;;;;;0.80;0.80;;;;;;;9.39;71.96;96757.41;4945854;28;20054;-63
2024/02/14 06:17:50;;;;;;;0.80;0.80;;;;;;;9.20;72.68;96713.25;4945623;28;20059;-63
2024/02/14 06:20:17;;;;;;;0.80;0.80;;;;;;;9.49;71.76;96751.28;4944379;29;20062;-62
2024/02/14 06:22:44;;;;;;;0.75;0.75;;;;;;;9.48;72.31;96755.22;4945889;28;20113;-61
2024/02/14 06:25:22;;;;;;;0.70;0.70;;;;;;;9.53;72.15;96752.13;4945510;28;20569;-61
2024/02/14 06:27:49;;;;;;;0.80;0.80;;;;;;;9.01;71.66;96680.19;4946318;28;20047;-61
2024/02/14 06:30:17;;;;;;;0.80;0.80;;;;;;;9.45;71.32;96761.50;4945649;28;20510;-62
2024/02/14 06:32:44;;;;;;;0.70;0.70;;;;;;;9.29;70.68;96705.53;4944803;29;20130;-61
2024/02/14 06:35:14;;;;;;;0.77;0.77;;;;;;;9.28;70.35;96690.09;4945683;29;20077;-61
2024/02/14 06:37:42;;;;;;;0.80;0.80;;;;;;;9.84;71.81;96762.91;4944735;29;20143;-61
2024/02/14 06:40:22;;;;;;;0.77;0.77;;;;;;;9.95;70.53;96780.47;4945757;28;20055;-61
2024/02/14 06:42:51;;;;;;;0.80;0.80;;;;;;;9.65;70.68;96727.03;4945865;28;20055;-62
2024/02/14 06:45:18;;;;;;;0.80;0.80;;;;;;;9.88;70.01;96752.66;4933780;28;20059;-62
2024/02/14 06:47:45;;;;;;;0.80;0.80;;;;;;;9.00;69.58;96601.25;4945433;28;20051;-62
2024/02/14 06:50:12;;;;;;;0.80;0.80;;;;;;;10.21;68.17;96788.75;4943771;29;20519;-62
2024/02/14 06:52:39;;;;;;;0.80;0.80;;;;;;;10.16;67.39;96797.38;4947282;28;20055;-63
2024/02/14 06:55:06;;;;;;;0.80;0.80;;;;;;;10.18;67.87;96795.03;4947635;28;20051;-61
2024/02/14 06:57:33;;;;;;;0.80;0.80;;;;;;;9.80;66.64;96734.38;4945819;28;20051;-61
2024/02/14 06:59:59;;;;;;;0.90;0.90;;;;;;;10.20;66.95;96798.25;4948457;28;20059;-63
2024/02/14 07:02:28;;;;;;;0.80;0.80;;;;;;;10.09;67.30;96786.22;4967843;28;20054;-64
2024/02/14 07:04:55;;;;;;;0.77;0.77;;;;;;;9.62;67.41;96733.31;4961526;28;20501;-64
2024/02/14 07:07:22;;;;;;;0.80;0.80;;;;;;;9.39;68.14;96768.47;4939660;29;20139;-69
2024/02/14 07:09:48;;;;;;;0.80;0.80;;;;;;;9.80;68.42;96762.03;4941099;28;20052;-61
2024/02/14 07:12:15;;;;;;;0.75;0.75;;;;;;;10.01;66.18;96817.69;4947075;28;20047;-62
2024/02/14 07:14:42;;;;;;;0.73;0.73;;;;;;;9.71;66.50;96758.75;4949600;28;20166;-64
2024/02/14 07:17:09;;;;;;;0.80;0.80;;;;;;;10.07;66.35;96802.41;4946492;28;20055;-67
2024/02/14 07:19:36;;;;;;;0.80;0.80;;;;;;;9.68;65.33;96792.66;4913836;28;20058;-65
2024/02/14 07:22:03;;;;;;;0.80;0.80;;;;;;;10.33;65.71;96834.81;4902089;28;20468;-63
2024/02/14 07:24:30;;;;;;;0.80;0.80;;;;;;;10.23;66.65;96847.31;4884066;28;20102;-62
2024/02/14 07:26:57;;;;;;;0.80;0.80;;;;;;;10.25;65.50;96833.09;4892589;28;20051;-60
2024/02/14 07:29:25;;;;;;;0.80;0.80;;;;;;;9.91;63.90;96795.41;4884775;28;20107;-60
2024/02/14 07:31:52;;;;;;;0.88;0.88;;;;;;;10.27;64.00;96842.66;4889410;28;20584;-60
2024/02/14 07:34:19;;;;;;;0.80;0.80;;;;;;;9.80;64.81;96806.28;4890036;28;20051;-65
2024/02/14 07:36:46;;;;;;;0.80;0.80;;;;;;;10.06;64.89;96819.34;4893662;28;20075;-62
2024/02/14 07:39:13;;;;;;;0.80;0.80;;;;;;;9.56;65.22;96748.63;4886012;28;20054;-59
2024/02/14 07:41:40;;;;;;;0.80;0.80;;;;;;;10.10;66.24;96854.22;4892458;28;20047;-64
2024/02/14 07:44:07;;;;;;;0.80;0.80;;;;;;;9.88;67.39;96863.31;4889545;28;21244;-60
2024/02/14 07:46:34;;;;;;;0.80;0.80;;;;;;;9.29;68.27;96779.34;4891835;28;21041;-62
2024/02/14 07:49:01;;;;;;;0.80;0.80;;;;;;;9.83;69.07;96871.16;4892554;28;20051;-59
2024/02/14 07:51:29;;;;;;;0.80;0.80;;;;;;;9.86;68.54;96867.66;4906251;28;20054;-62
2024/02/14 07:53:55;;;;;;;0.80;0.80;;;;;;;9.77;67.46;96829.16;4890607;28;20052;-64
2024/02/14 07:56:22;;;;;;;0.70;0.70;;;;;;;9.37;66.76;96742.38;4895999;28;20059;-70
2024/02/14 07:58:49;;;;;;;0.90;0.90;;;;;;;10.30;65.99;96864.06;4889104;29;20065;-62
2024/02/14 08:01:16;;;;;;;0.90;0.90;;;;;;;9.93;66.63;96788.31;4901247;28;20157;-62
2024/02/14 08:03:45;;;;;;;0.80;0.80;;;;;;;10.51;65.27;96864.34;4908631;28;20050;-69
2024/02/14 08:06:13;;;;;;;0.90;0.90;;;;;;;10.02;65.79;96810.97;4897782;28;20051;-61
2024/02/14 08:08:40;;;;;;;0.85;0.85;;;;;;;10.59;65.59;96870.81;4890664;29;20062;-62
2024/02/14 08:11:07;;;;;;;0.90;0.90;;;;;;;10.66;65.74;96874.47;4902867;28;20054;-61
2024/02/14 08:13:34;;;;;;;0.80;0.80;;;;;;;10.73;65.30;96882.84;4911646;28;20607;-61
2024/02/14 08:16:01;;;;;;;0.85;0.85;;;;;;;10.42;65.21;96805.69;4904986;28;20102;-64
2024/02/14 08:18:28;;;;;;;0.80;0.80;;;;;;;10.82;64.40;96867.91;4909802;28;20142;-64
2024/02/14 08:20:55;;;;;;;0.88;0.88;;;;;;;10.72;64.74;96847.22;4905338;28;20047;-61
2024/02/14 08:23:22;;;;;;;0.90;0.90;;;;;;;10.84;63.09;96848.97;4912561;28;20054;-61
2024/02/14 08:25:49;;;;;;;0.80;0.80;;;;;;;10.84;63.12;96821.25;4906177;28;20150;-63
2024/02/14 08:28:17;;;;;;;0.90;0.90;;;;;;;10.75;62.81;96801.34;4901607;28;20040;-60
2024/02/14 08:30:45;;;;;;;0.90;0.90;;;;;;;11.27;63.22;96895.44;4898233;28;20189;-60
2024/02/14 08:33:11;;;;;;;0.90;0.90;;;;;;;11.12;62.34;96849.28;4910568;28;20047;-63
2024/02/14 08:35:39;;;;;;;0.90;0.90;;;;;;;10.86;62.60;96841.06;4911836;28;20066;-63
2024/02/14 08:38:10;;;;;;;0.90;0.90;;;;;;;10.51;61.82;96772.94;4890538;28;20059;-62
2024/02/14 08:40:36;;;;;;;0.90;0.90;;;;;;;11.24;61.20;96874.00;4891638;28;20154;-60
2024/02/14 08:43:04;;;;;;;0.90;0.90;;;;;;;10.54;61.09;96747.28;4888597;28;20152;-62
2024/02/14 08:45:31;;;;;;;0.80;0.80;;;;;;;11.49;60.93;96902.81;4893679;28;20278;-68
2024/02/14 08:47:58;;;;;;;0.80;0.80;;;;;;;11.07;59.88;96836.56;4887916;28;20043;-64
2024/02/14 08:50:25;;;;;;;0.90;0.90;;;;;;;11.34;59.80;96870.53;4891222;28;20161;-70
2024/02/14 08:52:52;;;;;;;0.90;0.90;;;;;;;11.69;59.68;96907.03;4905892;28;20105;-60
2024/02/14 08:55:19;;;;;;;0.90;0.90;;;;;;;11.25;59.51;96883.91;4905841;28;20051;-63
2024/02/14 08:57:47;;;;;;;0.90;0.90;;;;;;;11.61;59.20;96913.63;4886776;28;20202;-66
2024/02/14 09:00:19;;;;;;;1.00;1.00;;;;;;;11.39;58.61;96853.56;4899575;28;20138;-65
2024/02/14 09:02:47;;;;;;;0.90;0.90;;;;;;;11.06;57.98;96762.94;4891379;29;20058;-69
2024/02/14 09:05:14;;;;;;;1.00;1.00;;;;;;;12.19;57.13;96909.06;4912178;28;20493;-60
2024/02/14 09:07:41;;;;;;;1.00;1.00;;;;;;;12.13;56.67;96916.97;4901210;28;20732;-61
2024/02/14 09:10:10;;;;;;;0.90;0.90;;;;;;;11.74;57.19;96853.97;4906645;28;20140;-63
2024/02/14 09:12:37;;;;;;;0.90;0.90;;;;;;;11.90;56.83;96890.59;4905726;28;20849;-61
2024/02/14 09:15:05;;;;;;;0.90;0.90;;;;;;;11.57;57.10;96849.00;4910792;28;20057;-63
2024/02/14 09:17:32;;;;;;;0.90;0.90;;;;;;;11.68;57.60;96910.97;4924450;28;20061;-66
2024/02/14 09:19:59;;;;;;;1.02;1.02;;;;;;;11.96;57.10;96917.63;4921528;28;20058;-67
2024/02/14 09:22:27;;;;;;;0.90;0.90;;;;;;;11.99;56.75;96916.03;4900263;28;20130;-62
2024/02/14 09:24:53;;;;;;;0.90;0.90;;;;;;;11.25;57.27;96900.53;4903790;28;20046;-64
2024/02/14 09:27:20;;;;;;;0.90;0.90;;;;;;;11.19;57.86;96960.28;4915867;28;20179;-64
2024/02/14 09:29:47;;;;;;;0.90;0.90;;;;;;;10.16;59.01;96825.06;4907471;28;20948;-65
2024/02/14 09:32:14;;;;;;;0.85;0.85;;;;;;;10.80;59.26;96920.13;4910288;28;20058;-65
2024/02/14 09:34:41;;;;;;;0.80;0.80;;;;;;;11.09;58.57;96906.31;4907779;28;20054;-64
2024/02/14 09:37:09;;;;;;;0.80;0.80;;;;;;;11.18;56.94;96937.28;4908109;28;20055;-69
2024/02/14 09:39:36;;;;;;;0.90;0.90;;;;;;;9.93;57.25;96813.22;4906758;28;20047;-63
2024/02/14 09:42:09;;;;;;;0.90;0.90;;;;;;;10.65;56.87;96895.00;4903818;28;20900;-67
2024/02/14 09:44:37;;;;;;;0.80;0.80;;;;;;;11.08;55.64;96934.41;4907829;28;20131;-66
2024/02/14 09:47:06;;;;;;;0.88;0.88;;;;;;;10.55;57.18;96920.59;4910367;28;20450;-61
2024/02/14 09:49:36;;;;;;;0.75;0.75;;;;;;;10.24;58.20;96914.56;4899609;28;20158;-67
2024/02/14 09:52:05;;;;;;;0.80;0.80;;;;;;;10.38;58.42;96896.22;4902960;28;20110;-67
2024/02/14 09:54:35;;;;;;;0.90;0.90;;;;;;;8.49;57.28;96547.53;4918012;28;20051;-72
2024/02/14 09:57:02;;;;;;;0.80;0.80;;;;;;;10.51;57.60;96914.19;4908050;28;20520;-63
2024/02/14 09:59:30;;;;;;;0.80;0.80;;;;;;;10.96;56.89;96909.66;4899134;28;20071;-64
2024/02/14 10:01:58;;;;;;;0.80;0.80;;;;;;;11.08;56.68;96892.81;4905250;28;20458;-70
2024/02/14 10:04:25;;;;;;;1.00;1.00;;;;;;;11.59;56.37;96907.66;4905553;28;20504;-62
2024/02/14 10:06:52;;;;;;;0.80;0.80;;;;;;;10.40;56.22;96736.03;4910637;28;20048;-67
2024/02/14 10:09:23;;;;;;;0.90;0.90;;;;;;;11.63;56.40;96919.63;4904938;28;20050;-62
2024/02/14 10:11:50;;;;;;;0.80;0.80;;;;;;;11.82;55.87;96908.34;4911113;28;20078;-65
2024/02/14 10:14:17;;;;;;;0.90;0.90;;;;;;;11.90;55.75;96908.00;4895056;28;20047;-63
2024/02/14 10:16:45;;;;;;;0.90;0.90;;;;;;;12.10;54.94;96905.81;4911458;28;20050;-69
2024/02/14 10:19:18;;;;;;;0.90;0.90;;;;;;;9.38;54.71;96484.94;4914250;28;20062;-67
2024/02/14 10:21:56;;;;;;;;;;;;;;;10.18;55.07;96651.13;4901924;28;20060;-67
2024/02/14 10:24:30;;;;;;;0.85;0.85;;;;;;;11.37;55.01;96836.50;4902845;28;20359;-64
2024/02/14 10:27:00;;;;;;;0.90;0.90;;;;;;;12.16;54.44;96909.84;4897309;28;20043;-72
2024/02/14 10:29:27;;;;;;;0.82;0.82;;;;;;;11.94;54.83;96844.22;4906590;28;20073;-67
2024/02/14 10:31:54;;;;;;;1.00;1.00;;;;;;;12.50;53.85;96852.97;4912119;28;20129;-65
2024/02/14 10:34:26;;;;;;;1.00;1.00;;;;;;;12.80;53.04;96886.91;4903109;28;20536;-64
2024/02/14 10:36:57;;;;;;;1.00;1.00;;;;;;;12.09;52.47;96721.00;4903121;28;20540;-68
2024/02/14 10:39:25;;;;;;;1.10;1.10;;;;;;;12.69;52.70;96774.88;4903683;28;20051;-70
2024/02/14 10:41:53;;;;;;;1.20;1.20;;;;;;;12.49;52.39;96745.78;4900784;28;20061;-65
2024/02/14 10:44:20;;;;;;;1.20;1.20;;;;;;;13.57;52.16;96884.50;4908513;28;20047;-66
2024/02/14 10:46:52;;;;;;;1.00;1.00;;;;;;;13.79;51.72;96878.94;4910837;28;20050;-62
2024/02/14 10:49:20;;;;;;;1.10;1.10;;;;;;;11.84;51.55;96632.03;4902899;28;20312;-67
2024/02/14 10:51:50;;;;;;;1.10;1.10;;;;;;;14.02;50.62;96866.25;4906398;28;20154;-67
2024/02/14 10:54:19;;;;;;;1.30;1.30;;;;;;;14.24;50.78;96878.22;4912101;28;20057;-62
2024/02/14 10:56:52;;;;;;;1.20;1.20;;;;;;;10.40;51.55;96475.78;4908118;28;20109;-68
2024/02/14 10:59:24;;;;;;;1.20;1.20;;;;;;;12.99;53.65;96881.03;4912179;28;20510;-70
2024/02/14 11:01:51;;;;;;;1.00;1.00;;;;;;;13.41;51.54;96870.13;4915690;28;20298;-62
2024/02/14 11:04:18;;;;;;;1.10;1.10;;;;;;;12.53;51.20;96671.63;4915899;28;20051;-72
2024/02/14 11:06:53;;;;;;;1.13;1.13;;;;;;;13.40;50.78;96840.69;4898405;28;20058;-65
2024/02/14 11:09:20;;;;;;;1.10;1.10;;;;;;;11.65;51.95;96700.91;4900596;28;20055;-63
2024/02/14 11:11:47;;;;;;;1.00;1.00;;;;;;;11.56;52.51;96778.03;4899520;28;20729;-65
2024/02/14 11:14:23;;;;;;;1.00;1.00;;;;;;;12.57;52.63;96878.00;4923946;28;20129;-66
2024/02/14 11:16:52;;;;;;;1.00;1.00;;;;;;;13.16;49.97;96869.25;4899689;28;20813;-60
2024/02/14 11:19:19;;;;;;;1.05;1.05;;;;;;;13.45;49.46;96850.66;4902714;28;20052;-67
2024/02/14 11:21:48;;;;;;;1.10;1.10;;;;;;;13.02;50.08;96880.31;4898856;28;20055;-70
2024/02/14 11:24:16;;;;;;;1.00;1.00;;;;;;;12.44;49.89;96821.16;4894559;28;20157;-71
2024/02/14 11:26:48;;;;;;;1.10;1.10;;;;;;;13.46;50.17;96875.31;4909745;28;20588;-60
2024/02/14 11:29:16;;;;;;;1.17;1.17;;;;;;;13.82;48.41;96872.59;4915605;28;20109;-68
2024/02/14 11:31:49;;;;;;;1.20;1.20;;;;;;;13.78;49.77;96871.78;4899091;28;20157;-65
2024/02/14 11:34:17;;;;;;;1.15;1.15;;;;;;;14.33;49.29;96870.28;4907269;28;20051;-70
2024/02/14 11:36:45;;;;;;;1.30;1.30;;;;;;;14.41;48.52;96867.09;4904820;28;20047;-65
2024/02/14 11:39:12;;;;;;;1.10;1.10;;;;;;;14.48;48.46;96871.88;4908409;28;20878;-65
2024/02/14 11:41:38;;;;;;;1.25;1.25;;;;;;;14.22;47.05;96785.88;4916727;28;21132;-69